createdAt,value
2022-07-30T00:04:17.033Z,6.10
2022-07-30T00:09:19.806Z,4.75
2022-07-30T00:14:23.892Z,4.53
2022-07-30T00:19:26.567Z,3.85
2022-07-30T00:24:29.455Z,3.90
2022-07-30T00:29:33.758Z,3.80
2022-07-30T00:34:37.069Z,4.00
2022-07-30T00:39:41.027Z,3.63
2022-07-30T00:44:48.065Z,4.05
2022-07-30T00:49:53.471Z,4.13
2022-07-30T00:54:56.325Z,4.18
2022-07-30T01:00:00.371Z,4.03
2022-07-30T01:05:03.209Z,4.30
2022-07-30T01:10:06.903Z,4.40
2022-07-30T01:15:12.766Z,4.10
2022-07-30T01:20:20.140Z,4.15
2022-07-30T01:25:49.618Z,4.40
2022-07-30T01:30:54.994Z,4.35
2022-07-30T01:36:00.073Z,4.40
2022-07-30T01:41:05.436Z,5.00
2022-07-30T01:46:09.393Z,4.28
2022-07-30T01:51:14.559Z,4.50
2022-07-30T01:56:24.744Z,4.78
2022-07-30T02:01:28.023Z,4.80
2022-07-30T02:06:35.641Z,4.18
2022-07-30T02:12:04.357Z,5.07
2022-07-30T02:17:18.987Z,4.55
2022-07-30T02:22:24.705Z,5.07
2022-07-30T02:27:34.607Z,4.38
2022-07-30T02:32:44.692Z,5.20
2022-07-30T02:37:50.693Z,5.25
2022-07-30T02:42:55.525Z,4.78
2022-07-30T02:48:01.809Z,5.03
2022-07-30T02:53:09.162Z,4.85
2022-07-30T02:58:16.825Z,4.78
2022-07-30T03:03:20.931Z,4.32
2022-07-30T03:08:24.732Z,4.97
2022-07-30T03:13:28.860Z,5.10
2022-07-30T03:18:36.177Z,4.68
2022-07-30T03:23:40.774Z,4.53
2022-07-30T03:28:45.676Z,4.80
2022-07-30T03:33:49.751Z,5.15
2022-07-30T03:38:53.812Z,5.32
2022-07-30T03:43:58.284Z,5.30
2022-07-30T03:49:01.681Z,4.82
2022-07-30T03:54:08.449Z,5.25
2022-07-30T03:59:16.598Z,5.47
2022-07-30T04:04:19.966Z,5.00
2022-07-30T04:09:23.445Z,4.93
2022-07-30T04:14:27.656Z,5.60
2022-07-30T04:19:37.616Z,5.38
2022-07-30T04:24:42.083Z,5.30
2022-07-30T04:29:46.242Z,5.72
2022-07-30T04:34:49.457Z,5.63
2022-07-30T04:39:54.830Z,5.82
2022-07-30T04:44:59.035Z,5.65
2022-07-30T04:50:02.839Z,5.50
2022-07-30T04:55:09.386Z,6.03
2022-07-30T05:00:17.237Z,5.85
2022-07-30T05:05:21.447Z,5.85
2022-07-30T05:10:24.304Z,5.88
2022-07-30T05:15:35.764Z,4.97
2022-07-30T05:20:39.963Z,5.60
2022-07-30T05:25:43.693Z,6.07
2022-07-30T05:30:47.840Z,5.57
2022-07-30T05:35:51.236Z,5.20
2022-07-30T05:40:54.038Z,5.20
2022-07-30T05:45:58.107Z,5.38
2022-07-30T05:51:00.863Z,4.65
2022-07-30T05:56:03.585Z,5.18
2022-07-30T06:01:07.732Z,5.32
2022-07-30T06:06:10.565Z,4.30
2022-07-30T06:11:13.371Z,5.35
2022-07-30T06:16:17.596Z,4.78
2022-07-30T06:21:20.335Z,5.35
2022-07-30T06:26:23.055Z,5.13
2022-07-30T06:31:27.164Z,4.97
2022-07-30T06:36:30.496Z,5.53
2022-07-30T06:41:33.339Z,5.25
2022-07-30T06:46:37.559Z,4.55
2022-07-30T06:51:40.251Z,4.72
2022-07-30T06:56:42.948Z,4.80
2022-07-30T07:01:48.060Z,4.80
2022-07-30T07:06:50.763Z,4.22
2022-07-30T07:11:53.579Z,4.68
2022-07-30T07:16:57.641Z,4.25
2022-07-30T07:22:00.332Z,4.90
2022-07-30T07:27:03.443Z,4.28
2022-07-30T07:32:08.248Z,4.22
2022-07-30T07:37:11.040Z,4.50
2022-07-30T07:42:13.695Z,4.53
2022-07-30T07:47:17.716Z,4.35
2022-07-30T07:52:20.401Z,4.43
2022-07-30T07:57:23.073Z,4.03
2022-07-30T08:02:27.143Z,4.18
2022-07-30T08:07:30.703Z,4.60
2022-07-30T08:12:33.778Z,6.30
2022-07-30T08:17:42.452Z,5.55
2022-07-30T08:22:45.226Z,6.00
2022-07-30T08:27:47.908Z,6.00
2022-07-30T08:32:51.972Z,6.47
2022-07-30T08:37:54.843Z,6.22
2022-07-30T08:42:57.611Z,6.35
2022-07-30T08:48:03.796Z,6.80
2022-07-30T08:53:07.471Z,6.10
2022-07-30T08:58:18.843Z,6.28
2022-07-30T09:03:22.947Z,6.13
2022-07-30T09:08:25.664Z,5.88
2022-07-30T09:13:29.356Z,5.50
2022-07-30T09:18:35.617Z,5.60
2022-07-30T09:23:38.323Z,5.18
2022-07-30T09:28:41.003Z,5.30
2022-07-30T09:33:47.387Z,5.13
2022-07-30T09:38:52.557Z,5.05
2022-07-30T09:43:55.308Z,5.28
2022-07-30T09:49:15.161Z,4.97
2022-07-30T09:54:18.511Z,5.80
2022-07-30T09:59:35.097Z,5.75
2022-07-30T10:04:40.347Z,5.75
2022-07-30T10:09:45.447Z,6.03
2022-07-30T10:14:51.673Z,5.90
2022-07-30T10:19:56.211Z,5.07
2022-07-30T10:24:58.976Z,6.35
2022-07-30T10:30:04.059Z,6.50
2022-07-30T10:35:09.987Z,5.53
2022-07-30T10:40:23.334Z,5.65
2022-07-30T10:45:46.424Z,5.40
2022-07-30T10:50:53.725Z,5.50
2022-07-30T10:56:12.340Z,5.63
2022-07-30T11:01:18.520Z,5.03
2022-07-30T11:06:29.692Z,4.88
2022-07-30T11:12:04.944Z,4.90
2022-07-30T11:17:09.387Z,4.70
2022-07-30T11:22:28.236Z,4.60
2022-07-30T11:27:38.197Z,4.45
2022-07-30T11:32:40.948Z,4.68
2022-07-30T11:38:01.898Z,5.22
2022-07-30T11:43:24.565Z,4.10
2022-07-30T11:48:41.036Z,4.38
2022-07-30T11:53:46.034Z,4.30
2022-07-30T11:58:48.815Z,4.32
2022-07-30T12:03:51.561Z,4.32
2022-07-30T12:08:58.728Z,4.68
2022-07-30T12:14:02.553Z,4.35
2022-07-30T12:19:06.778Z,4.07
2022-07-30T12:24:14.748Z,4.00
2022-07-30T12:29:31.249Z,3.92
2022-07-30T12:34:40.591Z,3.50
2022-07-30T12:40:01.240Z,3.60
2022-07-30T12:45:54.483Z,4.38
2022-07-30T12:51:31.651Z,4.47
2022-07-30T12:56:47.511Z,4.18
2022-07-30T13:01:59.593Z,4.22
2022-07-30T13:07:39.450Z,4.15
2022-07-30T13:20:01.301Z,4.30
2022-07-30T13:25:48.951Z,3.67
2022-07-30T13:31:44.084Z,2.70
2022-07-30T13:43:08.312Z,2.35
2022-07-30T13:48:48.202Z,2.13
2022-07-30T13:54:32.663Z,2.20
2022-07-30T14:06:46.602Z,2.30
2022-07-30T14:17:32.385Z,1.98
2022-07-30T14:22:58.238Z,2.13
2022-07-30T14:28:21.690Z,1.95
2022-07-30T14:33:49.859Z,2.17
2022-07-30T14:39:06.743Z,2.42
2022-07-30T14:44:16.704Z,2.25
2022-07-30T14:55:37.578Z,2.00
2022-07-30T15:01:19.000Z,1.73
2022-07-30T15:07:07.685Z,1.73
2022-07-30T15:12:52.138Z,1.65
2022-07-30T15:18:29.104Z,1.63
2022-07-30T15:24:07.413Z,1.42
2022-07-30T15:29:38.111Z,1.48
2022-07-30T15:35:23.542Z,1.70
2022-07-30T15:40:37.894Z,1.50
2022-07-30T15:45:56.941Z,1.40
2022-07-30T15:51:12.430Z,1.52
2022-07-30T15:56:41.404Z,1.45
2022-07-30T16:01:56.169Z,1.80
2022-07-30T17:11:46.495Z,2.08
2022-07-30T17:23:31.558Z,1.50
2022-07-30T18:25:51.841Z,4.10
2022-07-30T18:30:54.987Z,5.00
2022-07-30T18:35:59.017Z,5.20
2022-07-30T18:41:02.860Z,5.90
2022-07-30T18:46:07.158Z,5.32
2022-07-30T18:51:14.057Z,5.47
2022-07-30T18:56:16.919Z,5.65
2022-07-30T19:01:19.681Z,5.22
2022-07-30T19:06:23.833Z,6.22
2022-07-30T19:11:26.529Z,6.47
2022-07-30T19:16:29.226Z,5.82
2022-07-30T19:21:33.220Z,6.32
2022-07-30T19:26:35.953Z,6.75
2022-07-30T19:31:41.508Z,6.53
2022-07-30T19:36:45.495Z,6.80
2022-07-30T19:41:48.176Z,7.55
2022-07-30T19:47:05.246Z,7.18
2022-07-30T19:52:22.846Z,6.72
2022-07-30T19:57:53.221Z,7.43
2022-07-30T20:02:49.565Z,6.40
2022-07-30T20:07:53.706Z,6.70
2022-07-30T20:13:01.032Z,7.13
2022-07-30T20:18:09.250Z,7.43
2022-07-30T20:23:14.417Z,7.25
2022-07-30T20:28:17.132Z,8.10
2022-07-30T20:33:26.788Z,6.97
2022-07-30T20:38:44.406Z,7.80
2022-07-30T20:43:51.849Z,8.23
2022-07-30T20:48:55.773Z,7.78
2022-07-30T20:53:59.850Z,9.02
2022-07-30T20:59:02.524Z,8.27
2022-07-30T21:04:05.829Z,8.48
2022-07-30T21:09:14.076Z,8.32
2022-07-30T21:14:17.767Z,8.10
2022-07-30T21:19:20.546Z,8.77
2022-07-30T21:24:27.633Z,8.82
2022-07-30T21:29:30.344Z,8.00
2022-07-30T21:34:35.999Z,8.30
2022-07-30T21:39:46.482Z,8.57
2022-07-30T21:44:49.667Z,8.80
2022-07-30T21:49:55.204Z,8.50
2022-07-30T21:54:59.301Z,9.23
2022-07-30T22:00:10.968Z,7.35
2022-07-30T22:05:14.115Z,7.82
2022-07-30T22:10:21.364Z,9.23
2022-07-30T22:15:24.625Z,8.93
2022-07-30T22:20:29.890Z,8.65
2022-07-30T22:25:41.526Z,9.25
2022-07-30T22:30:48.633Z,8.15
2022-07-30T22:35:51.390Z,8.57
2022-07-30T22:40:55.457Z,8.30
2022-07-30T22:45:59.874Z,8.23
2022-07-30T22:51:03.205Z,8.85
2022-07-30T22:56:14.166Z,8.95
2022-07-30T23:01:18.589Z,8.68
2022-07-30T23:06:21.332Z,9.90
2022-07-30T23:11:26.425Z,9.80
2022-07-30T23:16:40.744Z,9.07
2022-07-30T23:21:48.639Z,8.98
2022-07-30T23:26:52.908Z,9.82
2022-07-30T23:31:55.758Z,9.48
2022-07-30T23:36:58.445Z,8.88
2022-07-30T23:42:02.444Z,9.25
2022-07-30T23:47:05.464Z,9.73
2022-07-30T23:52:09.512Z,9.85
2022-07-30T23:57:13.519Z,8.95
